Time;durP1;ratioP1;P1;durP2;ratioP2;P2;SDS_P1;SDS_P2;PMS_P1;PMS_P2;Temp;Humidity;BMP_temperature;BMP_pressure;BME280_temperature;BME280_humidity;BME280_pressure;Samples;Min_cycle;Max_cycle;Signal;HPM_P1;HPM_P2
2022/04/24 00:01:57;;;;;;;10.57;6.90;;;;;;;13.12;71.13;99873.06;4999888;28;20460;-78
2022/04/24 00:04:24;;;;;;;13.55;6.68;;;;;;;13.04;71.28;99869.25;4999368;28;20046;-78
2022/04/24 00:06:53;;;;;;;11.73;7.28;;;;;;;13.16;70.88;99871.72;5001731;28;20485;-78
2022/04/24 00:09:20;;;;;;;15.68;7.57;;;;;;;13.12;70.63;99871.22;5017985;28;20033;-78
2022/04/24 00:11:46;;;;;;;12.70;7.20;;;;;;;13.03;71.26;99869.41;5002084;28;20034;-78
2022/04/24 00:14:12;;;;;;;12.18;7.32;;;;;;;12.91;72.74;99868.84;5030250;28;20050;-78
2022/04/24 00:16:39;;;;;;;10.80;6.65;;;;;;;12.86;73.48;99862.97;4994203;28;20033;-78
2022/04/24 00:19:05;;;;;;;15.20;7.53;;;;;;;12.90;71.70;99856.09;4984664;28;20068;-78
2022/04/24 00:21:30;;;;;;;9.85;7.45;;;;;;;12.87;73.12;99860.06;5015343;28;20186;-79
2022/04/24 00:23:56;;;;;;;12.20;7.20;;;;;;;12.72;73.37;99861.66;5014746;28;20046;-78
2022/04/24 00:26:22;;;;;;;11.32;6.95;;;;;;;12.70;74.10;99852.72;5015852;28;20115;-79
2022/04/24 00:28:47;;;;;;;13.73;7.18;;;;;;;12.67;73.25;99855.78;4966723;28;20029;-79
2022/04/24 00:31:13;;;;;;;12.73;7.40;;;;;;;12.46;74.55;99851.50;4965308;28;20033;-79
2022/04/24 00:33:38;;;;;;;10.90;6.78;;;;;;;12.37;75.47;99855.19;5015836;28;20030;-78
2022/04/24 00:36:04;;;;;;;9.98;6.97;;;;;;;12.41;74.75;99855.72;5032115;28;20050;-79
2022/04/24 00:38:35;;;;;;;10.63;6.53;;;;;;;12.26;76.03;99853.53;5015416;28;20037;-79
2022/04/24 00:41:01;;;;;;;13.02;7.97;;;;;;;12.09;77.34;99849.78;5010518;28;20485;-79
2022/04/24 00:43:27;;;;;;;14.68;7.75;;;;;;;11.95;78.23;99842.97;5029811;28;20489;-79
2022/04/24 00:46:07;;;;;;;12.93;7.80;;;;;;;11.91;79.62;99852.50;5012603;28;20033;-79
2022/04/24 00:48:34;;;;;;;14.35;8.88;;;;;;;11.81;81.17;99848.94;4991065;28;20030;-79
2022/04/24 00:50:59;;;;;;;15.07;7.65;;;;;;;11.67;81.86;99849.47;5006685;28;20029;-79
2022/04/24 00:53:24;;;;;;;10.73;7.57;;;;;;;11.78;80.71;99852.00;4981178;28;20038;-78
2022/04/24 00:55:51;;;;;;;11.25;7.45;;;;;;;11.67;81.03;99841.25;4996622;28;20053;-78
2022/04/24 00:58:18;;;;;;;12.52;8.10;;;;;;;11.65;81.57;99846.88;4988147;28;20505;-78
2022/04/24 01:00:44;;;;;;;11.93;7.95;;;;;;;11.57;82.34;99836.66;5011358;28;20041;-77
2022/04/24 01:03:09;;;;;;;11.23;7.22;;;;;;;11.55;81.69;99833.22;5030325;28;20038;-79
2022/04/24 01:05:35;;;;;;;11.65;7.55;;;;;;;11.72;80.98;99841.63;4991618;28;20037;-78
2022/04/24 01:08:00;;;;;;;18.73;7.60;;;;;;;11.68;81.01;99843.84;5010763;28;20035;-79
2022/04/24 01:10:26;;;;;;;15.57;8.13;;;;;;;11.58;82.43;99837.56;5013234;28;20026;-79
2022/04/24 01:12:52;;;;;;;16.23;8.95;;;;;;;11.60;82.25;99849.22;5013026;28;20038;-79
2022/04/24 01:15:17;;;;;;;11.43;7.38;;;;;;;11.58;82.45;99846.63;4980496;28;20037;-79
2022/04/24 01:17:43;;;;;;;13.43;7.50;;;;;;;11.55;81.95;99838.72;5029167;28;20038;-79
2022/04/24 01:20:10;;;;;;;13.85;8.07;;;;;;;11.57;83.01;99842.16;4984079;28;20129;-78
2022/04/24 01:22:36;;;;;;;13.02;8.38;;;;;;;11.50;83.61;99853.91;4977324;28;20046;-79
2022/04/24 01:25:01;;;;;;;13.05;8.25;;;;;;;11.51;83.67;99841.91;5007112;28;20056;-79
2022/04/24 01:27:27;;;;;;;13.55;8.43;;;;;;;11.45;83.92;99846.13;5015796;28;20030;-81
2022/04/24 01:29:52;;;;;;;13.13;8.38;;;;;;;11.53;83.79;99848.13;4983439;28;20072;-80
2022/04/24 01:32:18;;;;;;;10.60;7.55;;;;;;;11.42;84.70;99832.72;5012663;28;20114;-80
2022/04/24 01:34:43;;;;;;;12.52;7.90;;;;;;;11.38;84.26;99848.63;5033417;28;20046;-80
2022/04/24 01:37:09;;;;;;;14.18;8.38;;;;;;;11.47;83.10;99854.22;5032582;28;20109;-80
2022/04/24 01:39:34;;;;;;;16.27;8.27;;;;;;;11.39;84.03;99846.72;5014402;28;20030;-80
2022/04/24 01:42:00;;;;;;;16.58;8.45;;;;;;;11.37;84.01;99857.00;5000265;28;20042;-80
2022/04/24 01:44:25;;;;;;;15.15;8.27;;;;;;;11.30;84.39;99855.88;4998829;28;20046;-80
2022/04/24 01:46:52;;;;;;;14.63;8.25;;;;;;;11.31;83.68;99857.59;5014559;28;20037;-79
2022/04/24 01:49:17;;;;;;;13.02;7.90;;;;;;;11.20;84.69;99845.81;5000354;28;20034;-80
2022/04/24 01:51:44;;;;;;;10.73;7.32;;;;;;;11.24;85.00;99860.06;5016206;28;20045;-80
2022/04/24 01:54:10;;;;;;;10.95;8.43;;;;;;;11.10;84.14;99836.78;5000188;28;20046;-80
2022/04/24 01:56:35;;;;;;;12.40;7.82;;;;;;;11.15;84.57;99856.38;5015837;28;20087;-79
2022/04/24 01:59:00;;;;;;;11.23;8.13;;;;;;;11.08;85.05;99852.47;4999446;28;20089;-79
2022/04/24 02:01:26;;;;;;;13.00;8.70;;;;;;;10.94;85.52;99847.50;5031113;28;20046;-80
2022/04/24 02:03:51;;;;;;;14.73;8.48;;;;;;;10.98;85.01;99846.19;5016573;28;20049;-80
2022/04/24 02:06:17;;;;;;;19.80;8.77;;;;;;;10.95;84.66;99847.38;5015928;28;20037;-80
2022/04/24 02:08:42;;;;;;;10.05;7.75;;;;;;;11.01;84.34;99863.19;4986712;28;20397;-80
2022/04/24 02:11:08;;;;;;;17.95;10.45;;;;;;;10.87;85.38;99852.72;4990189;28;20347;-80
2022/04/24 02:13:34;;;;;;;18.27;9.63;;;;;;;10.89;85.12;99858.91;4991692;28;20040;-80
2022/04/24 02:16:00;;;;;;;15.00;8.60;;;;;;;10.94;85.07;99858.47;5015801;28;20374;-79
2022/04/24 02:18:25;;;;;;;16.33;8.77;;;;;;;10.79;86.07;99853.44;5016376;28;20030;-79
2022/04/24 02:20:51;;;;;;;15.68;8.88;;;;;;;10.72;86.46;99862.41;4994881;28;20046;-79
2022/04/24 02:23:16;;;;;;;12.73;8.77;;;;;;;10.64;86.81;99849.44;4998267;28;20397;-80
2022/04/24 02:25:42;;;;;;;14.85;8.25;;;;;;;10.58;88.21;99858.25;5012630;28;20069;-79
2022/04/24 02:28:07;;;;;;;13.95;9.52;;;;;;;10.49;88.43;99862.72;4999431;28;20500;-79
2022/04/24 02:30:33;;;;;;;15.82;9.02;;;;;;;10.48;89.53;99861.00;5014274;28;20457;-79
2022/04/24 02:33:00;;;;;;;15.77;9.43;;;;;;;10.43;89.63;99866.91;5016674;28;20116;-79
2022/04/24 02:35:28;;;;;;;15.52;7.93;;;;;;;10.46;88.29;99869.34;5014711;28;20057;-80
2022/04/24 02:37:54;;;;;;;13.52;8.98;;;;;;;10.32;89.55;99867.06;5014725;28;20042;-79
2022/04/24 02:40:21;;;;;;;16.55;9.95;;;;;;;10.22;90.55;99857.97;5014220;28;20045;-80
2022/04/24 02:42:49;;;;;;;12.90;8.95;;;;;;;10.18;91.62;99865.56;5030025;28;20034;-80
2022/04/24 02:45:15;;;;;;;12.90;8.65;;;;;;;10.19;90.16;99863.72;5015282;28;20030;-79
2022/04/24 02:47:41;;;;;;;14.50;9.35;;;;;;;10.02;91.89;99866.16;5015025;28;20439;-80
2022/04/24 02:50:07;;;;;;;16.17;9.63;;;;;;;9.96;92.92;99865.84;4997498;28;20121;-79
2022/04/24 02:52:32;;;;;;;18.95;9.70;;;;;;;9.83;94.13;99860.66;5013950;28;20501;-80
2022/04/24 02:54:58;;;;;;;18.63;10.43;;;;;;;9.87;94.20;99864.81;4998301;28;20037;-79
2022/04/24 02:57:23;;;;;;;20.48;10.52;;;;;;;9.88;92.75;99858.34;5014473;28;20121;-79
2022/04/24 02:59:49;;;;;;;16.45;10.10;;;;;;;9.91;92.68;99856.19;5014640;28;20454;-80
2022/04/24 03:02:18;;;;;;;15.48;10.88;;;;;;;9.90;93.44;99861.81;5015181;28;20600;-79
2022/04/24 03:04:48;;;;;;;21.58;10.07;;;;;;;9.80;93.80;99863.66;5013063;28;20533;-79
2022/04/24 03:07:13;;;;;;;18.65;10.35;;;;;;;9.73;94.61;99864.22;4968568;28;20036;-78
2022/04/24 03:09:39;;;;;;;17.77;9.93;;;;;;;9.70;94.58;99860.91;4981670;28;20471;-79
2022/04/24 03:12:05;;;;;;;18.42;11.25;;;;;;;9.68;94.56;99858.31;4995243;28;20049;-79
2022/04/24 03:14:31;;;;;;;17.25;10.20;;;;;;;9.56;94.87;99849.38;4973653;28;20041;-79
2022/04/24 03:16:56;;;;;;;19.23;10.93;;;;;;;9.57;95.20;99859.31;4998003;28;20053;-79
2022/04/24 03:19:22;;;;;;;18.92;11.23;;;;;;;9.53;95.30;99870.66;5012098;28;20038;-79
2022/04/24 03:21:48;;;;;;;19.27;10.95;;;;;;;9.52;95.41;99856.13;5015830;28;20383;-79
2022/04/24 03:24:13;;;;;;;20.02;11.02;;;;;;;9.45;96.22;99857.69;5014880;28;20096;-78
2022/04/24 03:26:39;;;;;;;19.95;10.98;;;;;;;9.36;96.08;99853.03;4982488;28;20038;-79
2022/04/24 03:29:04;;;;;;;18.77;11.65;;;;;;;9.41;95.98;99872.63;4998516;28;20109;-79
2022/04/24 03:31:30;;;;;;;23.02;12.25;;;;;;;9.33;96.78;99869.72;4996918;28;20424;-78
2022/04/24 03:33:55;;;;;;;20.88;12.85;;;;;;;9.28;97.75;99861.94;4997277;28;20128;-80
2022/04/24 03:36:21;;;;;;;21.27;12.43;;;;;;;9.26;97.84;99868.53;4995341;28;20062;-80
2022/04/24 03:38:47;;;;;;;17.92;11.48;;;;;;;9.11;98.87;99859.84;5011027;28;20046;-79
2022/04/24 03:41:12;;;;;;;21.33;11.20;;;;;;;9.16;98.72;99874.81;5014489;28;20046;-79
2022/04/24 03:43:38;;;;;;;21.10;12.57;;;;;;;9.09;99.37;99864.59;5015950;28;20140;-78
2022/04/24 03:46:05;;;;;;;24.15;13.02;;;;;;;9.05;100.00;99871.31;4997146;28;20098;-79
2022/04/24 03:48:31;;;;;;;17.52;11.68;;;;;;;8.97;100.00;99867.41;5014435;28;20521;-79
2022/04/24 03:50:56;;;;;;;24.48;13.40;;;;;;;8.95;100.00;99876.72;5030337;28;20135;-80
2022/04/24 03:53:22;;;;;;;29.38;13.48;;;;;;;8.92;100.00;99875.16;5013962;28;20065;-79
2022/04/24 03:55:47;;;;;;;23.55;12.85;;;;;;;8.83;100.00;99874.06;5029232;28;20103;-78
2022/04/24 03:58:13;;;;;;;21.50;13.23;;;;;;;8.77;100.00;99877.38;4978161;28;20079;-80
2022/04/24 04:00:38;;;;;;;23.52;13.52;;;;;;;8.78;100.00;99867.31;4980291;28;20452;-80
2022/04/24 04:03:03;;;;;;;26.00;14.20;;;;;;;8.77;100.00;99873.75;5013779;28;20087;-80
2022/04/24 04:05:29;;;;;;;30.52;14.95;;;;;;;8.62;100.00;99865.94;5013871;28;20457;-80
2022/04/24 04:07:55;;;;;;;24.52;13.82;;;;;;;8.64;100.00;99863.03;4995627;28;20117;-80
2022/04/24 04:10:22;;;;;;;29.55;14.57;;;;;;;8.64;100.00;99871.22;5011017;28;20041;-80
2022/04/24 04:12:49;;;;;;;21.85;13.80;;;;;;;8.53;100.00;99863.13;5013346;28;20049;-80
2022/04/24 04:15:15;;;;;;;27.85;13.38;;;;;;;8.48;100.00;99863.53;5028149;28;20049;-80
2022/04/24 04:17:40;;;;;;;24.83;14.80;;;;;;;8.54;100.00;99865.69;5013521;28;20041;-80
2022/04/24 04:20:11;;;;;;;27.73;14.25;;;;;;;8.50;100.00;99872.44;5008987;28;20060;-79
2022/04/24 04:22:52;;;;;;;27.58;14.32;;;;;;;8.48;100.00;99873.56;5013626;28;20042;-79
2022/04/24 04:25:19;;;;;;;24.23;13.48;;;;;;;8.35;100.00;99866.41;5011962;28;20037;-79
2022/04/24 04:27:45;;;;;;;24.88;14.07;;;;;;;8.39;100.00;99878.78;5012020;28;20044;-78
2022/04/24 04:30:11;;;;;;;23.30;13.57;;;;;;;8.40;100.00;99875.06;4995447;28;20022;-79
2022/04/24 04:32:36;;;;;;;28.48;14.63;;;;;;;8.31;100.00;99873.09;4980570;28;20042;-78
2022/04/24 04:35:04;;;;;;;24.17;13.35;;;;;;;8.43;100.00;99880.28;4992088;28;20484;-79
2022/04/24 04:37:31;;;;;;;27.77;15.50;;;;;;;8.38;100.00;99887.09;5012151;28;20034;-79
2022/04/24 04:39:57;;;;;;;24.00;13.30;;;;;;;8.44;100.00;99890.22;5012511;28;20038;-79
2022/04/24 04:42:22;;;;;;;27.02;14.18;;;;;;;8.35;100.00;99887.38;5013701;28;20029;-79
2022/04/24 04:44:48;;;;;;;27.38;14.23;;;;;;;8.28;100.00;99881.59;5012571;28;20452;-78
2022/04/24 04:47:13;;;;;;;22.90;12.52;;;;;;;8.32;100.00;99885.75;4996781;28;20429;-79
2022/04/24 04:49:39;;;;;;;28.20;14.90;;;;;;;8.34;100.00;99900.13;5011357;28;20116;-79
2022/04/24 04:52:04;;;;;;;25.48;14.43;;;;;;;8.34;100.00;99900.13;4995922;28;20430;-78
2022/04/24 04:54:30;;;;;;;30.73;14.23;;;;;;;8.32;100.00;99904.84;5012474;28;20042;-79
2022/04/24 04:56:55;;;;;;;30.48;14.40;;;;;;;8.35;100.00;99907.31;5012514;28;20038;-78
2022/04/24 04:59:21;;;;;;;25.92;13.88;;;;;;;8.39;100.00;99911.50;4997118;28;20037;-78
2022/04/24 05:01:46;;;;;;;28.58;15.18;;;;;;;8.30;100.00;99904.13;5015852;28;20416;-77
2022/04/24 05:04:12;;;;;;;25.10;14.23;;;;;;;8.35;100.00;99911.91;4998973;28;20030;-79
2022/04/24 05:06:37;;;;;;;27.50;13.50;;;;;;;8.51;100.00;99916.94;4998878;28;20104;-78
2022/04/24 05:09:04;;;;;;;31.77;14.70;;;;;;;8.41;100.00;99904.06;5016419;28;20045;-78
2022/04/24 05:11:30;;;;;;;23.35;13.88;;;;;;;8.50;100.00;99920.69;5015367;28;20026;-78
2022/04/24 05:13:56;;;;;;;28.73;14.70;;;;;;;8.49;100.00;99919.81;5016894;28;20045;-79
2022/04/24 05:16:21;;;;;;;29.58;15.02;;;;;;;8.44;100.00;99927.50;4995562;28;20034;-79
2022/04/24 05:18:47;;;;;;;25.52;13.48;;;;;;;8.63;100.00;99926.81;4966948;28;20042;-79
2022/04/24 05:21:12;;;;;;;32.78;14.65;;;;;;;8.62;100.00;99927.81;5000967;28;20124;-79
2022/04/24 05:23:40;;;;;;;27.63;15.18;;;;;;;8.61;100.00;99924.22;4999871;28;20061;-79
2022/04/24 05:26:06;;;;;;;33.08;15.05;;;;;;;8.62;100.00;99915.03;5016934;28;20370;-79
2022/04/24 05:28:31;;;;;;;27.40;14.35;;;;;;;8.85;100.00;99931.25;4997935;28;20045;-79
2022/04/24 05:30:57;;;;;;;27.92;13.65;;;;;;;9.12;100.00;99932.59;5013099;28;20041;-80
2022/04/24 05:33:22;;;;;;;31.90;14.57;;;;;;;9.20;100.00;99924.59;5010379;28;20046;-80
2022/04/24 05:35:49;;;;;;;26.58;14.68;;;;;;;9.23;100.00;99926.16;4998472;28;20129;-80
2022/04/24 05:38:15;;;;;;;37.22;14.43;;;;;;;9.37;100.00;99931.28;5031375;28;20041;-80
2022/04/24 05:40:40;;;;;;;34.75;16.33;;;;;;;9.69;100.00;99924.78;5015493;28;20393;-81
2022/04/24 05:43:06;;;;;;;33.72;15.88;;;;;;;9.65;100.00;99935.13;5000331;28;20096;-80
2022/04/24 05:45:32;;;;;;;32.75;16.13;;;;;;;9.76;100.00;99936.91;5031603;28;20041;-80
2022/04/24 05:47:58;;;;;;;31.33;13.85;;;;;;;9.99;98.60;99939.41;4997053;28;20041;-81
2022/04/24 05:50:24;;;;;;;38.30;15.65;;;;;;;10.07;99.01;99939.56;5015749;28;20026;-80
2022/04/24 05:52:54;;;;;;;31.70;15.65;;;;;;;10.17;98.71;99940.44;5017491;28;20030;-80
2022/04/24 05:55:20;;;;;;;29.05;14.98;;;;;;;10.36;97.65;99942.34;5008720;28;20121;-80
2022/04/24 05:57:45;;;;;;;33.70;16.17;;;;;;;10.75;94.70;99933.28;4979066;28;20120;-81
2022/04/24 06:00:12;;;;;;;31.85;16.23;;;;;;;10.63;94.54;99944.38;5013189;28;20042;-80
2022/04/24 06:02:39;;;;;;;34.92;16.45;;;;;;;10.63;95.58;99941.66;5013475;28;20088;-81
2022/04/24 06:05:06;;;;;;;36.75;17.10;;;;;;;10.73;95.03;99952.59;4996689;28;20485;-82
2022/04/24 06:07:34;;;;;;;40.25;16.23;;;;;;;10.91;94.59;99958.19;5002326;28;20034;-81
2022/04/24 06:10:00;;;;;;;34.60;18.02;;;;;;;11.03;92.47;99959.78;5013274;28;20410;-81
2022/04/24 06:12:26;;;;;;;46.42;16.90;;;;;;;11.04;90.63;99956.00;5011939;28;20033;-81
2022/04/24 06:14:51;;;;;;;38.55;16.88;;;;;;;11.26;90.09;99959.44;4995353;28;20524;-80
2022/04/24 06:17:17;;;;;;;34.90;16.02;;;;;;;11.05;91.63;99959.59;5009528;28;20041;-80
2022/04/24 06:19:42;;;;;;;37.88;17.20;;;;;;;11.52;89.99;99929.47;5008909;28;20045;-81
2022/04/24 06:22:08;;;;;;;43.13;17.80;;;;;;;11.61;88.80;99952.41;5014546;28;20050;-80
2022/04/24 06:24:33;;;;;;;32.90;16.58;;;;;;;11.61;87.89;99954.25;4998048;28;20488;-80
2022/04/24 06:26:59;;;;;;;42.75;16.88;;;;;;;11.53;89.86;99952.28;4993834;28;20035;-80
2022/04/24 06:29:24;;;;;;;37.88;16.38;;;;;;;12.02;86.71;99952.06;5009648;28;20109;-80
2022/04/24 06:31:50;;;;;;;42.55;16.33;;;;;;;11.89;85.86;99953.28;5027756;28;20030;-80
2022/04/24 06:34:16;;;;;;;37.60;15.95;;;;;;;12.20;86.09;99958.47;4997817;28;20037;-79
2022/04/24 06:36:41;;;;;;;36.80;17.27;;;;;;;12.58;83.84;99959.22;4992979;28;20076;-80
2022/04/24 06:39:07;;;;;;;42.60;16.10;;;;;;;12.23;83.78;99963.66;4998399;28;20050;-80
2022/04/24 06:41:32;;;;;;;38.85;16.42;;;;;;;12.64;82.87;99955.84;4998724;28;20037;-81
2022/04/24 06:43:58;;;;;;;39.45;15.40;;;;;;;13.04;81.71;99973.69;4994859;28;20061;-80
2022/04/24 06:46:26;;;;;;;39.05;15.70;;;;;;;13.13;79.96;99960.00;5011552;28;20072;-81
2022/04/24 06:48:52;;;;;;;35.22;15.18;;;;;;;13.02;79.84;99969.38;5012803;28;20060;-80
2022/04/24 06:51:18;;;;;;;32.00;14.10;;;;;;;13.36;80.08;99975.00;4997174;28;20038;-80
2022/04/24 06:53:43;;;;;;;33.78;14.65;;;;;;;13.71;79.01;99975.88;5014565;28;20042;-80
2022/04/24 06:56:09;;;;;;;26.77;13.75;;;;;;;13.62;76.99;99967.75;5008302;28;20489;-79
2022/04/24 06:58:35;;;;;;;26.13;13.90;;;;;;;13.67;75.03;99968.97;5023168;28;20049;-78
2022/04/24 07:01:00;;;;;;;29.40;14.20;;;;;;;13.61;76.26;99975.16;5008668;28;20030;-78
2022/04/24 07:03:29;;;;;;;33.00;13.88;;;;;;;13.65;74.96;99968.28;5005311;28;20041;-79
2022/04/24 07:05:56;;;;;;;34.42;13.50;;;;;;;14.35;73.41;99967.19;5007295;28;20038;-79
2022/04/24 07:08:24;;;;;;;29.10;13.20;;;;;;;14.31;73.20;99972.19;5012802;28;20037;-79
2022/04/24 07:10:53;;;;;;;29.30;13.40;;;;;;;14.62;71.65;99973.47;5008734;28;20382;-79
2022/04/24 07:13:18;;;;;;;25.45;13.15;;;;;;;14.33;72.43;99970.13;5009467;28;20081;-79
2022/04/24 07:15:44;;;;;;;31.30;14.05;;;;;;;14.52;72.74;99970.84;5007943;28;20481;-79
2022/04/24 07:18:10;;;;;;;39.13;14.13;;;;;;;15.17;68.31;99980.25;4994599;28;20076;-80
2022/04/24 07:20:36;;;;;;;29.27;12.68;;;;;;;15.22;70.37;99975.91;5011752;28;20069;-79
2022/04/24 07:23:03;;;;;;;26.58;13.15;;;;;;;15.13;69.26;99990.72;5011716;28;20029;-80
2022/04/24 07:25:43;;;;;;;23.33;12.23;;;;;;;15.62;65.36;99979.63;5012731;28;20450;-79
2022/04/24 07:28:10;;;;;;;27.42;13.75;;;;;;;15.40;68.35;99988.66;5012541;28;20037;-79
2022/04/24 07:30:35;;;;;;;26.33;13.00;;;;;;;15.49;68.12;99979.31;5013029;28;20049;-80
2022/04/24 07:33:01;;;;;;;25.60;12.52;;;;;;;15.41;67.32;99985.72;4995729;28;20034;-78
2022/04/24 07:35:28;;;;;;;32.15;11.98;;;;;;;15.42;65.43;99981.06;5012345;28;20038;-79
2022/04/24 07:37:55;;;;;;;21.92;11.25;;;;;;;16.05;64.50;99987.63;5014774;28;20478;-79
2022/04/24 07:40:23;;;;;;;25.83;11.82;;;;;;;16.08;63.33;99989.19;4994184;28;20091;-78
2022/04/24 07:42:53;;;;;;;23.27;11.63;;;;;;;16.57;63.60;99988.09;4995796;28;20036;-79
2022/04/24 07:45:27;;;;;;;25.60;11.55;;;;;;;16.11;64.99;99986.06;5020921;28;20468;-78
2022/04/24 07:47:54;;;;;;;20.00;11.02;;;;;;;16.81;62.35;99987.06;5011400;28;20041;-78
2022/04/24 07:50:32;;;;;;;25.13;11.43;;;;;;;16.58;62.33;99979.63;5023397;28;20034;-79
2022/04/24 07:52:58;;;;;;;23.30;11.50;;;;;;;16.72;62.67;99984.38;5007482;28;20097;-79
2022/04/24 07:55:24;;;;;;;18.80;11.38;;;;;;;17.25;61.23;99986.41;5011015;28;20038;-79
2022/04/24 07:57:53;;;;;;;21.13;10.98;;;;;;;17.92;58.76;99977.25;4990723;28;20042;-79
2022/04/24 08:00:23;;;;;;;16.58;10.73;;;;;;;17.42;59.20;99981.56;5010891;28;20048;-80
2022/04/24 08:02:51;;;;;;;23.60;10.80;;;;;;;17.20;60.35;99975.00;5027396;28;20034;-78
2022/04/24 08:05:47;;;;;;;20.77;11.75;;;;;;;17.14;58.95;99989.63;5028282;28;20044;-78
2022/04/24 08:08:18;;;;;;;20.48;11.25;;;;;;;17.30;59.41;99988.59;5001955;28;20081;-80
2022/04/24 08:10:45;;;;;;;22.20;11.10;;;;;;;17.38;61.02;99982.97;5011290;28;20165;-80
2022/04/24 08:13:11;;;;;;;23.58;11.07;;;;;;;17.23;59.06;99975.53;5012286;28;20069;-80
2022/04/24 08:15:37;;;;;;;18.05;11.20;;;;;;;17.54;58.77;99993.88;5012773;28;20432;-80
2022/04/24 08:18:04;;;;;;;22.40;12.15;;;;;;;17.80;56.36;99975.97;5010506;28;20472;-80
2022/04/24 08:20:31;;;;;;;16.80;10.65;;;;;;;18.05;56.34;99979.34;5027458;28;21024;-80
2022/04/24 08:22:59;;;;;;;19.80;10.73;;;;;;;17.58;56.04;99986.09;5010487;28;20087;-80
2022/04/24 08:25:26;;;;;;;17.42;11.77;;;;;;;17.93;55.49;99980.88;5011447;28;20067;-80
2022/04/24 08:27:53;;;;;;;21.92;11.80;;;;;;;17.71;54.80;99979.88;5013831;28;20079;-78
2022/04/24 08:30:21;;;;;;;21.80;11.85;;;;;;;18.02;55.48;99988.06;5007730;28;20034;-78
2022/04/24 08:32:47;;;;;;;33.55;11.90;;;;;;;18.27;55.48;99990.50;5029074;28;20053;-78
2022/04/24 08:35:14;;;;;;;20.77;11.55;;;;;;;18.47;54.48;99990.75;5010622;28;20038;-80
2022/04/24 08:37:41;;;;;;;23.88;12.10;;;;;;;18.04;55.07;99980.41;5005358;28;20112;-82
2022/04/24 08:40:08;;;;;;;74.32;13.63;;;;;;;18.44;56.38;99999.47;5009708;28;20045;-81
2022/04/24 08:42:35;;;;;;;33.95;12.80;;;;;;;18.97;54.59;99988.13;5021262;28;20034;-80
2022/04/24 08:45:02;;;;;;;36.28;11.60;;;;;;;18.46;55.00;99989.03;4994946;28;20042;-80
2022/04/24 08:47:28;;;;;;;22.40;12.38;;;;;;;18.74;55.11;99981.69;5009535;28;20128;-80
2022/04/24 08:49:56;;;;;;;23.65;12.73;;;;;;;18.65;54.51;99998.66;5005176;28;20091;-83
2022/04/24 08:52:23;;;;;;;26.88;12.85;;;;;;;18.65;54.23;99999.50;5012004;28;20030;-84
2022/04/24 08:54:50;;;;;;;26.17;12.27;;;;;;;18.60;57.04;99990.06;5012958;28;20038;-83
2022/04/24 08:57:18;;;;;;;26.77;13.18;;;;;;;19.07;53.54;99995.09;5013038;28;20057;-82
2022/04/24 08:59:44;;;;;;;18.98;12.57;;;;;;;18.95;53.33;99995.81;5012594;28;20109;-82
2022/04/24 09:02:10;;;;;;;29.85;12.20;;;;;;;19.88;51.54;99995.75;5012413;28;20493;-82
2022/04/24 09:04:37;;;;;;;18.08;12.35;;;;;;;19.23;52.22;99999.50;5012859;28;20038;-81
2022/04/24 09:07:05;;;;;;;25.58;11.90;;;;;;;19.03;54.35;100004.00;5014145;28;20034;-81
2022/04/24 09:09:42;;;;;;;20.73;12.52;;;;;;;19.61;51.83;99999.19;5006363;28;20034;-81
2022/04/24 09:12:13;;;;;;;24.38;12.35;;;;;;;19.56;51.49;100001.72;5012239;28;20095;-81
2022/04/24 09:14:39;;;;;;;27.15;12.90;;;;;;;19.27;52.14;99995.25;5011566;28;20082;-82
2022/04/24 09:17:06;;;;;;;20.15;12.43;;;;;;;19.49;51.73;100005.47;5006180;28;20588;-82
2022/04/24 09:19:36;;;;;;;22.55;12.75;;;;;;;20.12;50.51;99997.16;5010932;28;20029;-80
2022/04/24 09:22:09;;;;;;;20.35;12.40;;;;;;;19.47;50.86;99995.44;5011298;28;20053;-80
2022/04/24 09:24:48;;;;;;;24.90;11.82;;;;;;;19.58;49.40;99994.03;5010259;28;20095;-79
2022/04/24 09:27:35;;;;;;;20.13;11.73;;;;;;;18.76;52.13;99998.16;5023359;28;20045;-80
2022/04/24 09:30:11;;;;;;;22.98;12.07;;;;;;;18.89;52.11;99987.22;5005204;28;20477;-80
2022/04/24 09:32:45;;;;;;;19.85;12.30;;;;;;;19.76;49.13;99998.25;5020751;28;20030;-81
2022/04/24 09:35:10;;;;;;;22.33;13.30;;;;;;;19.39;51.40;99995.56;5012180;28;20117;-81
2022/04/24 09:37:39;;;;;;;21.13;12.80;;;;;;;19.74;49.11;99992.00;5009076;28;20134;-81
2022/04/24 09:40:06;;;;;;;20.30;12.60;;;;;;;19.52;50.60;99983.72;4998557;28;20076;-81
2022/04/24 09:42:31;;;;;;;34.55;13.73;;;;;;;19.37;49.87;99991.28;5024912;28;20045;-81
2022/04/24 09:44:59;;;;;;;27.50;14.40;;;;;;;19.04;51.80;99995.47;4994846;28;20156;-80
2022/04/24 09:47:26;;;;;;;24.75;13.38;;;;;;;19.72;51.26;99997.75;5014897;28;20037;-82
2022/04/24 09:49:53;;;;;;;27.52;13.95;;;;;;;19.58;51.07;99993.19;4999734;28;20582;-81
2022/04/24 09:52:18;;;;;;;23.45;14.00;;;;;;;19.49;52.08;99994.38;5014688;28;20120;-81
2022/04/24 09:54:46;;;;;;;27.38;15.20;;;;;;;20.05;49.28;100001.84;4999054;28;20131;-81
2022/04/24 09:57:14;;;;;;;26.58;14.55;;;;;;;19.58;50.15;99999.59;5013101;28;20469;-81
2022/04/24 09:59:41;;;;;;;26.00;14.40;;;;;;;19.47;49.91;100009.31;5015890;28;20083;-80
2022/04/24 10:02:08;;;;;;;27.00;14.98;;;;;;;19.34;51.10;99991.69;5011253;28;20034;-81
2022/04/24 10:04:35;;;;;;;29.95;14.10;;;;;;;19.71;48.84;99997.94;5014204;28;20465;-80
2022/04/24 10:07:25;;;;;;;30.98;15.73;;;;;;;19.28;49.50;100001.66;5014458;28;20041;-81
2022/04/24 10:09:51;;;;;;;23.42;14.93;;;;;;;19.60;49.26;100000.22;5019312;28;20038;-81
2022/04/24 10:12:19;;;;;;;28.23;16.27;;;;;;;20.00;49.70;99996.91;4985513;28;20377;-81
2022/04/24 10:14:57;;;;;;;29.88;15.05;;;;;;;19.85;47.78;99999.78;5031457;22;20089;-79
2022/04/24 10:17:56;;;;;;;27.80;14.80;;;;;;;20.06;48.09;100006.34;5013109;28;20111;-80
2022/04/24 10:20:41;;;;;;;22.80;13.90;;;;;;;19.89;46.04;100006.69;4994671;28;20156;-80
2022/04/24 10:23:08;;;;;;;30.05;16.73;;;;;;;19.73;49.71;100009.75;5013342;28;20044;-80
2022/04/24 10:25:43;;;;;;;34.55;15.25;;;;;;;19.59;47.98;100000.44;4996276;28;20030;-82
2022/04/24 10:28:17;;;;;;;29.42;16.10;;;;;;;20.26;46.65;100006.44;5010646;28;20065;-79
2022/04/24 10:31:03;;;;;;;29.98;16.77;;;;;;;20.05;48.30;100022.16;5024983;28;20022;-79
2022/04/24 10:33:34;;;;;;;34.90;17.38;;;;;;;20.02;48.20;100017.00;5018543;28;20386;-79
2022/04/24 10:36:06;;;;;;;37.47;15.35;;;;;;;20.18;47.99;100010.25;5013457;28;20065;-79
2022/04/24 10:38:49;;;;;;;41.67;15.73;;;;;;;19.32;48.22;100021.59;4997090;28;20036;-79
2022/04/24 10:41:17;;;;;;;23.30;14.38;;;;;;;19.69;47.85;100019.53;5026184;28;20061;-79
2022/04/24 10:43:52;;;;;;;29.13;15.75;;;;;;;19.29;49.81;100017.28;5012719;28;20730;-79
2022/04/24 10:46:26;;;;;;;31.25;14.93;;;;;;;19.75;47.88;100013.16;4990010;28;20113;-79
2022/04/24 10:48:52;;;;;;;23.30;15.43;;;;;;;19.92;50.57;100017.38;5013254;28;20034;-78
2022/04/24 10:51:29;;;;;;;32.13;15.70;;;;;;;19.98;49.42;100008.22;4981826;28;20086;-79
2022/04/24 10:53:56;;;;;;;31.77;16.08;;;;;;;19.87;50.70;100011.56;4996807;28;20041;-79
2022/04/24 10:56:22;;;;;;;29.00;14.20;;;;;;;19.86;48.03;100009.84;5020007;28;20026;-79
2022/04/24 10:58:49;;;;;;;31.50;14.93;;;;;;;19.64;48.47;100006.22;5015129;28;20573;-79
2022/04/24 11:01:15;;;;;;;26.45;15.75;;;;;;;19.90;46.38;100004.75;5013911;28;20100;-80
2022/04/24 11:03:43;;;;;;;30.30;15.40;;;;;;;19.69;48.38;100014.81;5012594;28;20101;-80
2022/04/24 11:06:19;;;;;;;28.67;14.85;;;;;;;19.54;48.26;100014.06;4987794;28;20038;-80
2022/04/24 11:08:46;;;;;;;24.15;13.50;;;;;;;19.81;47.76;100012.38;5003419;28;20044;-79
2022/04/24 11:11:15;;;;;;;30.85;15.07;;;;;;;19.52;46.99;100002.31;5010830;28;20550;-79
2022/04/24 11:13:41;;;;;;;24.17;14.95;;;;;;;19.65;47.43;100010.75;5002739;28;20022;-80
2022/04/24 11:16:07;;;;;;;26.45;14.35;;;;;;;19.42;49.17;100005.44;5013832;28;20057;-81
2022/04/24 11:18:33;;;;;;;32.33;14.48;;;;;;;19.43;48.80;100010.78;5010379;28;20030;-80
2022/04/24 11:21:03;;;;;;;34.50;13.80;;;;;;;19.83;46.88;100008.34;4998264;28;20497;-79